createdAt,value
2018-07-19T00:00:39.884Z,58.00
2018-07-19T00:03:38.078Z,58.94
2018-07-19T00:06:36.097Z,58.96
2018-07-19T00:09:34.403Z,58.44
2018-07-19T00:12:32.326Z,58.76
2018-07-19T00:15:30.415Z,59.21
2018-07-19T00:18:31.830Z,60.53
2018-07-19T00:21:29.111Z,60.34
2018-07-19T00:24:26.267Z,60.76
2018-07-19T00:27:24.328Z,60.49
2018-07-19T00:30:22.031Z,60.05
2018-07-19T00:33:19.794Z,60.61
2018-07-19T00:36:18.121Z,60.53
2018-07-19T00:39:15.871Z,60.48
2018-07-19T00:42:14.267Z,60.07
2018-07-19T00:45:11.422Z,60.14
2018-07-19T00:48:09.347Z,61.80
2018-07-19T00:51:06.489Z,62.46
2018-07-19T00:54:04.549Z,62.07
2018-07-19T00:57:02.551Z,61.31
2018-07-19T00:59:59.694Z,61.32
2018-07-19T01:02:56.868Z,61.80
2018-07-19T01:05:54.090Z,61.82
2018-07-19T01:08:51.314Z,62.39
2018-07-19T01:11:48.758Z,62.17
2018-07-19T01:14:45.992Z,62.21
2018-07-19T01:17:43.696Z,62.65
2018-07-19T01:20:41.615Z,63.11
2018-07-19T01:23:39.598Z,62.24
2018-07-19T01:26:36.879Z,62.15
2018-07-19T01:29:34.161Z,62.08
2018-07-19T01:32:32.165Z,62.71
2018-07-19T01:35:29.319Z,62.27
2018-07-19T01:38:27.221Z,62.87
2018-07-19T01:41:39.740Z,62.58
2018-07-19T01:44:37.043Z,62.57
2018-07-19T01:47:34.291Z,62.54
2018-07-19T01:50:32.118Z,63.45
2018-07-19T01:53:29.973Z,63.65
2018-07-19T01:56:27.043Z,63.82
2018-07-19T01:59:24.427Z,63.62
2018-07-19T02:02:22.668Z,63.91
2018-07-19T02:05:20.723Z,65.24
2018-07-19T02:08:18.574Z,65.51
2018-07-19T02:11:16.652Z,65.71
2018-07-19T02:14:13.962Z,64.79
2018-07-19T02:17:11.651Z,64.43
2018-07-19T02:20:09.602Z,63.91
2018-07-19T02:23:07.617Z,64.01
2018-07-19T02:26:05.761Z,64.63
2018-07-19T02:29:03.198Z,65.13
2018-07-19T02:32:00.741Z,64.47
2018-07-19T02:34:58.841Z,64.75
2018-07-19T02:37:56.675Z,65.08
2018-07-19T02:40:54.015Z,65.68
2018-07-19T02:43:52.099Z,65.63
2018-07-19T02:46:50.530Z,65.77
2018-07-19T02:49:48.303Z,66.20
2018-07-19T02:52:46.526Z,66.56
2018-07-19T02:55:44.391Z,67.19
2018-07-19T02:58:42.313Z,66.34
2018-07-19T03:01:40.638Z,67.34
2018-07-19T03:04:37.742Z,67.77
2018-07-19T03:07:35.734Z,66.74
2018-07-19T03:10:32.883Z,66.54
2018-07-19T03:13:31.158Z,66.19
2018-07-19T03:16:29.240Z,67.08
2018-07-19T03:19:26.738Z,65.87
2018-07-19T03:22:24.039Z,65.32
2018-07-19T03:25:21.242Z,65.28
2018-07-19T03:28:18.567Z,66.92
2018-07-19T03:31:15.965Z,66.78
2018-07-19T03:34:14.002Z,67.51
2018-07-19T03:37:12.218Z,67.37
2018-07-19T03:40:09.502Z,67.30
2018-07-19T03:43:06.692Z,66.09
2018-07-19T03:46:04.189Z,65.18
2018-07-19T03:49:01.334Z,64.82
2018-07-19T03:51:58.756Z,63.49
2018-07-19T03:54:56.126Z,61.94
2018-07-19T03:57:53.184Z,62.46
2018-07-19T04:00:51.249Z,59.93
2018-07-19T04:03:48.675Z,59.07
2018-07-19T04:06:46.540Z,59.44
2018-07-19T04:09:45.470Z,58.69
2018-07-19T04:12:43.186Z,58.50
2018-07-19T04:15:41.031Z,57.20
2018-07-19T04:18:38.516Z,55.83
2018-07-19T04:21:35.747Z,54.70
2018-07-19T04:24:32.906Z,53.45
2018-07-19T04:27:30.145Z,52.64
2018-07-19T04:30:27.897Z,55.07
2018-07-19T04:33:25.225Z,51.53
2018-07-19T04:36:22.558Z,53.68
2018-07-19T04:39:21.574Z,52.70
2018-07-19T04:42:18.709Z,51.20
2018-07-19T04:45:15.954Z,49.74
2018-07-19T04:48:13.963Z,51.21
2018-07-19T04:51:12.270Z,48.46
2018-07-19T04:54:10.547Z,47.99
2018-07-19T04:57:07.688Z,45.52
2018-07-19T05:00:05.722Z,44.75
2018-07-19T05:03:03.927Z,43.35
2018-07-19T05:06:01.807Z,42.44
2018-07-19T05:08:58.946Z,43.31
2018-07-19T05:11:56.118Z,42.12
2018-07-19T05:14:54.174Z,41.46
2018-07-19T05:17:51.499Z,40.92
2018-07-19T05:20:49.925Z,41.13
2018-07-19T05:23:48.003Z,39.29
2018-07-19T05:26:45.272Z,38.35
2018-07-19T05:29:42.815Z,37.92
2018-07-19T05:32:40.107Z,36.33
2018-07-19T05:35:37.269Z,36.91
2018-07-19T05:38:35.070Z,35.69
2018-07-19T05:41:33.099Z,35.26
2018-07-19T05:44:30.262Z,35.87
2018-07-19T05:47:27.692Z,36.08
2018-07-19T05:50:24.863Z,35.90
2018-07-19T05:53:22.734Z,35.07
2018-07-19T05:56:21.022Z,33.35
2018-07-19T05:59:18.966Z,32.17
2018-07-19T06:02:16.602Z,32.50
2018-07-19T06:05:14.667Z,34.13
2018-07-19T06:08:11.995Z,32.55
2018-07-19T06:11:10.131Z,29.91
2018-07-19T06:14:07.635Z,30.12
2018-07-19T06:17:05.223Z,30.06
2018-07-19T06:20:02.651Z,28.19
2018-07-19T06:23:00.972Z,29.00
2018-07-19T06:25:59.274Z,28.22
2018-07-19T06:28:57.419Z,28.09
2018-07-19T06:31:55.360Z,28.10
2018-07-19T06:34:53.518Z,28.18
2018-07-19T06:37:51.641Z,26.49
2018-07-19T06:40:49.675Z,27.89
2018-07-19T06:43:47.201Z,27.76
2018-07-19T06:46:44.978Z,27.09
2018-07-19T06:49:43.211Z,25.30
2018-07-19T06:52:40.686Z,24.59
2018-07-19T06:55:38.659Z,25.70
2018-07-19T06:58:36.842Z,27.06
2018-07-19T07:01:33.947Z,25.88
2018-07-19T07:04:31.331Z,26.63
2018-07-19T07:07:28.569Z,26.72
2018-07-19T07:10:25.678Z,27.91
2018-07-19T07:13:23.010Z,26.76
2018-07-19T07:16:20.185Z,27.24
2018-07-19T07:19:17.361Z,27.07
2018-07-19T07:22:14.843Z,27.55
2018-07-19T07:25:12.815Z,28.29
2018-07-19T07:28:10.376Z,26.64
2018-07-19T07:31:07.512Z,25.07
2018-07-19T07:34:05.045Z,25.49
2018-07-19T07:37:03.020Z,25.05
2018-07-19T07:40:00.045Z,25.17
2018-07-19T07:45:55.510Z,24.85
2018-07-19T07:48:52.758Z,24.18
2018-07-19T07:51:50.610Z,25.57
2018-07-19T07:54:48.757Z,26.49
2018-07-19T07:57:46.829Z,26.44
2018-07-19T08:00:43.971Z,25.65
2018-07-19T08:03:42.119Z,25.95
2018-07-19T08:06:39.651Z,25.91
2018-07-19T08:09:37.695Z,25.39
2018-07-19T08:12:35.747Z,22.72
2018-07-19T08:15:33.884Z,24.14
2018-07-19T08:18:31.216Z,24.60
2018-07-19T08:21:28.513Z,25.17
2018-07-19T08:24:26.089Z,24.53
2018-07-19T08:27:23.674Z,24.66
2018-07-19T08:30:20.894Z,25.17
2018-07-19T08:33:19.071Z,24.62
2018-07-19T08:36:17.374Z,23.17
2018-07-19T08:39:14.458Z,23.49
2018-07-19T08:42:11.724Z,23.53
2018-07-19T08:45:09.275Z,21.90
2018-07-19T08:48:07.320Z,21.13
2018-07-19T08:51:04.912Z,21.24
2018-07-19T08:54:02.930Z,21.62
2018-07-19T08:57:00.750Z,20.70
2018-07-19T08:59:58.777Z,20.68
2018-07-19T09:02:57.754Z,19.07
2018-07-19T09:05:56.477Z,20.47
2018-07-19T09:08:53.607Z,20.57
2018-07-19T09:11:52.784Z,20.87
2018-07-19T09:14:50.851Z,21.66
2018-07-19T09:17:48.699Z,20.73
2018-07-19T09:20:46.111Z,20.70
2018-07-19T09:23:43.513Z,20.96
2018-07-19T09:26:40.998Z,20.42
2018-07-19T09:29:40.592Z,20.22
2018-07-19T09:32:38.645Z,19.20
2018-07-19T09:35:36.149Z,20.21
2018-07-19T09:38:33.536Z,20.04
2018-07-19T09:41:30.686Z,20.17
2018-07-19T09:44:27.942Z,19.84
2018-07-19T09:47:25.238Z,21.22
2018-07-19T09:50:23.198Z,20.54
2018-07-19T09:53:20.437Z,20.67
2018-07-19T09:56:17.869Z,21.70
2018-07-19T09:59:15.676Z,21.09
2018-07-19T10:02:12.786Z,20.47
2018-07-19T10:05:10.753Z,21.65
2018-07-19T10:08:07.925Z,21.45
2018-07-19T10:11:05.382Z,20.13
2018-07-19T10:14:03.146Z,21.51
2018-07-19T10:17:00.654Z,20.69
2018-07-19T10:19:58.665Z,21.06
2018-07-19T10:22:56.471Z,20.63
2018-07-19T10:25:54.439Z,19.62
2018-07-19T10:28:51.608Z,19.01
2018-07-19T10:31:49.457Z,21.13
2018-07-19T10:34:47.403Z,22.96
2018-07-19T10:37:45.724Z,23.30
2018-07-19T10:40:43.859Z,23.20
2018-07-19T10:43:41.734Z,22.38
2018-07-19T10:46:38.958Z,22.77
2018-07-19T10:49:36.181Z,21.90
2018-07-19T10:52:34.573Z,21.87
2018-07-19T10:55:31.711Z,22.27
2018-07-19T10:58:29.942Z,22.26
2018-07-19T11:01:27.077Z,22.00
2018-07-19T11:04:25.309Z,22.79
2018-07-19T11:07:23.409Z,24.28
2018-07-19T11:10:21.374Z,23.66
2018-07-19T11:13:19.567Z,23.70
2018-07-19T11:16:16.905Z,23.64
2018-07-19T11:19:15.008Z,24.23
2018-07-19T11:22:12.308Z,24.20
2018-07-19T11:25:09.689Z,25.02
2018-07-19T11:28:07.750Z,26.49
2018-07-19T11:31:05.794Z,24.25
2018-07-19T11:34:03.644Z,23.67
2018-07-19T11:37:00.694Z,25.00
2018-07-19T11:39:57.946Z,25.64
2018-07-19T11:42:56.586Z,24.63
2018-07-19T11:45:54.316Z,25.97
2018-07-19T11:48:51.654Z,27.11
2018-07-19T11:51:49.880Z,27.01
2018-07-19T11:54:47.956Z,27.12
2018-07-19T11:57:45.175Z,27.88
2018-07-19T12:00:42.579Z,27.51
2018-07-19T12:03:40.798Z,27.44
2018-07-19T12:06:39.114Z,28.51
2018-07-19T12:09:37.236Z,27.55
2018-07-19T12:12:34.637Z,27.42
2018-07-19T12:15:32.808Z,28.04
2018-07-19T12:18:30.362Z,28.21
2018-07-19T12:21:28.495Z,28.76
2018-07-19T12:24:27.244Z,27.41
2018-07-19T12:27:25.833Z,29.07
2018-07-19T12:30:23.303Z,29.67
2018-07-19T12:33:20.803Z,28.06
2018-07-19T12:36:18.241Z,28.17
2018-07-19T12:39:18.635Z,27.72
2018-07-19T12:42:17.733Z,28.86
2018-07-19T12:45:15.059Z,28.82
2018-07-19T12:48:12.335Z,28.56
2018-07-19T12:51:09.646Z,29.26
2018-07-19T12:54:07.691Z,28.05
2018-07-19T12:57:04.800Z,27.51
2018-07-19T13:00:01.919Z,29.25
2018-07-19T13:02:58.991Z,28.80
2018-07-19T13:05:55.927Z,27.17
2018-07-19T13:08:53.191Z,27.30
2018-07-19T13:11:50.441Z,26.73
2018-07-19T13:14:49.309Z,27.16
2018-07-19T13:17:46.679Z,27.30
2018-07-19T13:20:43.956Z,27.72
2018-07-19T13:23:41.886Z,27.81
2018-07-19T13:26:39.163Z,28.44
2018-07-19T13:29:36.798Z,28.45
2018-07-19T13:32:34.869Z,28.38
2018-07-19T13:38:05.926Z,27.55
2018-07-19T13:41:03.885Z,28.11
2018-07-19T13:44:01.668Z,27.65
2018-07-19T13:46:59.539Z,27.73
2018-07-19T13:49:57.277Z,28.15
2018-07-19T13:53:07.141Z,28.35
2018-07-19T13:56:04.517Z,28.28
2018-07-19T13:59:01.499Z,28.17
2018-07-19T14:01:59.106Z,28.57
2018-07-19T14:04:56.412Z,28.90
2018-07-19T14:07:53.538Z,28.03
2018-07-19T14:10:51.593Z,27.72
2018-07-19T14:13:49.556Z,27.86
2018-07-19T14:16:47.337Z,27.71
2018-07-19T14:19:45.484Z,27.13
2018-07-19T14:22:43.640Z,27.82
2018-07-19T14:25:41.540Z,27.24
2018-07-19T14:28:39.538Z,27.42
2018-07-19T14:31:37.125Z,27.68
2018-07-19T14:34:35.070Z,29.17
2018-07-19T14:37:33.138Z,29.54
2018-07-19T14:40:30.833Z,28.41
2018-07-19T14:43:28.881Z,28.11
2018-07-19T14:46:26.983Z,28.89
2018-07-19T14:49:25.165Z,28.24
2018-07-19T14:52:23.310Z,29.15
2018-07-19T14:55:21.109Z,28.56
2018-07-19T14:58:19.061Z,28.80
2018-07-19T15:01:17.048Z,29.56
2018-07-19T15:04:14.879Z,29.44
2018-07-19T15:07:12.960Z,30.05
2018-07-19T15:10:10.973Z,30.87
2018-07-19T15:13:09.098Z,30.57
2018-07-19T15:16:07.006Z,30.07
2018-07-19T15:19:04.907Z,30.00
2018-07-19T15:22:02.979Z,30.99
2018-07-19T15:25:00.242Z,31.23
2018-07-19T15:27:58.123Z,30.15
2018-07-19T15:30:56.154Z,30.78
2018-07-19T15:33:54.150Z,30.38
2018-07-19T15:36:52.102Z,33.05
2018-07-19T15:39:50.122Z,31.70
2018-07-19T15:42:47.855Z,29.80
2018-07-19T15:45:45.884Z,28.72
2018-07-19T15:48:44.204Z,29.02
2018-07-19T15:51:41.967Z,30.72
2018-07-19T15:54:39.660Z,32.60
2018-07-19T15:57:37.762Z,31.31
2018-07-19T16:00:35.603Z,29.70
2018-07-19T16:03:33.605Z,29.74
2018-07-19T16:06:31.426Z,29.55
2018-07-19T16:09:30.527Z,30.83
2018-07-19T16:12:28.413Z,29.07
2018-07-19T16:15:26.214Z,31.00
2018-07-19T16:18:24.235Z,30.22
2018-07-19T16:21:22.360Z,30.93
2018-07-19T16:24:20.476Z,31.38
2018-07-19T16:27:18.666Z,30.04
2018-07-19T16:30:16.464Z,29.17
2018-07-19T16:33:14.445Z,29.49
2018-07-19T16:36:12.375Z,28.84
2018-07-19T16:39:10.138Z,28.70
2018-07-19T16:42:07.842Z,28.87
2018-07-19T16:45:05.848Z,28.72
2018-07-19T16:48:03.886Z,28.91
2018-07-19T16:51:01.718Z,29.34
2018-07-19T16:53:59.672Z,28.95
2018-07-19T16:56:57.833Z,28.93
2018-07-19T16:59:55.815Z,28.99
2018-07-19T17:02:53.721Z,30.30
2018-07-19T17:05:51.625Z,30.36
2018-07-19T17:08:49.546Z,30.83
2018-07-19T17:11:47.191Z,31.01
2018-07-19T17:14:45.278Z,31.52
2018-07-19T17:17:43.208Z,30.21
2018-07-19T17:20:40.928Z,30.44
2018-07-19T17:23:38.796Z,29.98
2018-07-19T17:26:36.539Z,32.49
2018-07-19T17:29:34.324Z,30.96
2018-07-19T17:32:33.400Z,31.59
2018-07-19T17:35:31.367Z,30.45
2018-07-19T17:38:29.158Z,29.47
2018-07-19T17:41:26.968Z,30.63
2018-07-19T17:44:25.059Z,32.50
2018-07-19T17:47:23.001Z,32.90
2018-07-19T17:50:20.868Z,32.82
2018-07-19T17:53:19.066Z,33.98
2018-07-19T17:56:17.302Z,34.31
2018-07-19T17:59:15.275Z,33.40
2018-07-19T18:02:13.091Z,33.08
2018-07-19T18:05:11.368Z,34.31
2018-07-19T18:08:08.953Z,33.64
2018-07-19T18:11:06.820Z,33.78
2018-07-19T18:14:04.790Z,33.45
2018-07-19T18:17:02.610Z,35.00
2018-07-19T18:20:00.431Z,36.03
2018-07-19T18:22:58.331Z,36.80
2018-07-19T18:25:56.167Z,33.47
2018-07-19T18:28:54.154Z,34.58
2018-07-19T18:31:52.325Z,34.57
2018-07-19T18:34:50.354Z,34.56
2018-07-19T18:37:48.316Z,34.89
2018-07-19T18:40:46.219Z,34.59
2018-07-19T18:43:44.154Z,35.20
2018-07-19T18:46:42.185Z,35.80
2018-07-19T18:49:39.915Z,35.97
2018-07-19T18:52:37.710Z,36.19
2018-07-19T18:55:35.485Z,35.77
2018-07-19T18:58:33.318Z,36.00
2018-07-19T19:01:31.545Z,36.10
2018-07-19T19:04:29.193Z,37.56
2018-07-19T19:07:27.170Z,36.61
2018-07-19T19:10:25.098Z,37.00
2018-07-19T19:13:23.135Z,36.12
2018-07-19T19:16:21.066Z,37.88
2018-07-19T19:19:19.189Z,38.27
2018-07-19T19:22:17.376Z,40.55
2018-07-19T19:25:15.346Z,41.67
2018-07-19T19:28:13.531Z,41.85
2018-07-19T19:31:11.279Z,42.86
2018-07-19T19:34:09.230Z,44.10
2018-07-19T19:37:07.115Z,44.43
2018-07-19T19:40:05.187Z,44.64
2018-07-19T19:43:03.313Z,45.87
2018-07-19T19:46:01.061Z,45.08
2018-07-19T19:48:59.063Z,45.05
2018-07-19T19:51:57.174Z,46.17
2018-07-19T19:54:55.153Z,46.65
2018-07-19T19:57:52.960Z,46.97
2018-07-19T20:00:51.005Z,47.41
2018-07-19T20:03:48.903Z,46.61
2018-07-19T20:06:46.843Z,46.94
2018-07-19T20:09:44.487Z,47.38
2018-07-19T20:12:42.599Z,49.16
2018-07-19T20:15:40.346Z,48.35
2018-07-19T20:18:38.449Z,48.75
2018-07-19T20:21:36.460Z,48.18
2018-07-19T20:24:34.547Z,49.01
2018-07-19T20:27:32.627Z,50.21
2018-07-19T20:30:30.788Z,50.04
2018-07-19T20:33:28.790Z,49.93
2018-07-19T20:36:26.938Z,50.48
2018-07-19T20:39:24.911Z,52.02
2018-07-19T20:42:22.623Z,50.64
2018-07-19T20:45:20.709Z,51.15
2018-07-19T20:48:18.648Z,50.73
2018-07-19T20:51:16.646Z,50.49
2018-07-19T20:54:14.511Z,52.05
2018-07-19T20:57:12.506Z,52.37
2018-07-19T21:00:10.340Z,53.25
2018-07-19T21:03:08.306Z,51.50
2018-07-19T21:06:06.111Z,51.66
2018-07-19T21:09:04.303Z,52.15
2018-07-19T21:12:02.286Z,51.79
2018-07-19T21:15:00.331Z,52.71
2018-07-19T21:17:58.217Z,52.22
2018-07-19T21:20:55.972Z,52.98
2018-07-19T21:23:54.111Z,52.74
2018-07-19T21:26:52.288Z,52.72
2018-07-19T21:29:50.238Z,53.23
2018-07-19T21:32:48.170Z,54.29
2018-07-19T21:35:46.277Z,54.14
2018-07-19T21:38:44.225Z,54.00
2018-07-19T21:41:42.411Z,54.38
2018-07-19T21:44:40.319Z,54.55
2018-07-19T21:47:38.468Z,55.38
2018-07-19T21:50:36.566Z,55.18
2018-07-19T21:53:34.554Z,55.24
2018-07-19T21:56:32.593Z,55.10
2018-07-19T21:59:30.746Z,54.66
2018-07-19T22:02:28.938Z,56.13
2018-07-19T22:05:26.984Z,56.38
2018-07-19T22:08:25.920Z,56.61
2018-07-19T22:11:23.864Z,56.54
2018-07-19T22:14:21.154Z,56.50
2018-07-19T22:17:19.090Z,57.78
2018-07-19T22:20:16.872Z,57.44
2018-07-19T22:23:14.647Z,57.15
2018-07-19T22:26:13.743Z,57.85
2018-07-19T22:29:11.640Z,57.78
2018-07-19T22:32:09.449Z,57.05
2018-07-19T22:35:08.314Z,57.61
2018-07-19T22:38:06.180Z,57.48
2018-07-19T22:41:04.035Z,57.52
2018-07-19T22:44:02.063Z,59.23
2018-07-19T22:46:59.924Z,59.14
2018-07-19T22:49:57.575Z,59.78
2018-07-19T22:52:55.379Z,59.54
2018-07-19T22:55:54.312Z,59.89
2018-07-19T22:58:52.082Z,58.32
2018-07-19T23:01:50.090Z,59.21
2018-07-19T23:04:47.895Z,59.40
2018-07-19T23:07:45.797Z,57.88
2018-07-19T23:10:43.558Z,59.25
2018-07-19T23:13:41.387Z,59.77
2018-07-19T23:16:39.201Z,60.27
2018-07-19T23:19:37.327Z,60.52
2018-07-19T23:22:35.466Z,59.05
2018-07-19T23:25:33.487Z,59.34
2018-07-19T23:28:31.423Z,58.08
2018-07-19T23:31:28.515Z,58.12
2018-07-19T23:34:26.736Z,59.80
2018-07-19T23:37:29.850Z,60.75
2018-07-19T23:40:38.086Z,59.99
2018-07-19T23:43:39.134Z,60.18
2018-07-19T23:46:42.153Z,60.86
2018-07-19T23:49:40.195Z,60.42
2018-07-19T23:52:38.150Z,60.56
2018-07-19T23:55:36.312Z,60.62
2018-07-19T23:58:34.307Z,61.74
